sensor_id;sensor_type;location;lat;lon;timestamp;temperature;humidity
2723;DHT22;1369;53.216;10.396;2023-02-20T00:01:18;5.30;99.90
2723;DHT22;1369;53.216;10.396;2023-02-20T00:03:46;5.40;99.90
2723;DHT22;1369;53.216;10.396;2023-02-20T00:06:12;5.40;99.90
2723;DHT22;1369;53.216;10.396;2023-02-20T00:08:37;5.50;99.90
2723;DHT22;1369;53.216;10.396;2023-02-20T00:11:03;5.60;99.90
2723;DHT22;1369;53.216;10.396;2023-02-20T00:13:28;5.60;99.90
2723;DHT22;1369;53.216;10.396;2023-02-20T00:15:54;5.70;99.90
2723;DHT22;1369;53.216;10.396;2023-02-20T00:18:20;5.70;99.90
2723;DHT22;1369;53.216;10.396;2023-02-20T00:20:45;5.80;99.90
2723;DHT22;1369;53.216;10.396;2023-02-20T00:23:11;5.80;99.90
2723;DHT22;1369;53.216;10.396;2023-02-20T00:25:36;5.80;99.90
2723;DHT22;1369;53.216;10.396;2023-02-20T00:28:02;5.90;99.90
2723;DHT22;1369;53.216;10.396;2023-02-20T00:30:28;6.00;99.90
2723;DHT22;1369;53.216;10.396;2023-02-20T00:32:54;6.00;99.90
2723;DHT22;1369;53.216;10.396;2023-02-20T00:35:21;6.00;99.90
2723;DHT22;1369;53.216;10.396;2023-02-20T00:37:47;6.00;99.90
2723;DHT22;1369;53.216;10.396;2023-02-20T00:40:13;6.10;99.90
2723;DHT22;1369;53.216;10.396;2023-02-20T00:42:39;6.10;99.90
2723;DHT22;1369;53.216;10.396;2023-02-20T00:45:05;6.10;99.90
2723;DHT22;1369;53.216;10.396;2023-02-20T00:47:31;6.10;99.90
2723;DHT22;1369;53.216;10.396;2023-02-20T00:49:57;6.20;99.90
2723;DHT22;1369;53.216;10.396;2023-02-20T00:52:22;6.20;99.90
2723;DHT22;1369;53.216;10.396;2023-02-20T00:54:48;6.20;99.90
2723;DHT22;1369;53.216;10.396;2023-02-20T00:57:14;6.20;99.90
2723;DHT22;1369;53.216;10.396;2023-02-20T00:59:39;6.20;99.90
2723;DHT22;1369;53.216;10.396;2023-02-20T01:02:05;6.20;99.90
2723;DHT22;1369;53.216;10.396;2023-02-20T01:04:30;6.20;99.90
2723;DHT22;1369;53.216;10.396;2023-02-20T01:06:56;6.20;99.90
2723;DHT22;1369;53.216;10.396;2023-02-20T01:09:21;6.20;99.90
2723;DHT22;1369;53.216;10.396;2023-02-20T01:11:47;6.30;99.90
2723;DHT22;1369;53.216;10.396;2023-02-20T01:14:12;6.30;99.90
2723;DHT22;1369;53.216;10.396;2023-02-20T01:16:48;6.30;99.90
2723;DHT22;1369;53.216;10.396;2023-02-20T01:19:15;6.30;99.90
2723;DHT22;1369;53.216;10.396;2023-02-20T01:21:41;6.30;99.90
2723;DHT22;1369;53.216;10.396;2023-02-20T01:24:07;6.30;99.90
2723;DHT22;1369;53.216;10.396;2023-02-20T01:26:32;6.30;99.90
2723;DHT22;1369;53.216;10.396;2023-02-20T01:28:58;6.30;99.90
2723;DHT22;1369;53.216;10.396;2023-02-20T01:31:23;6.30;99.90
2723;DHT22;1369;53.216;10.396;2023-02-20T01:33:49;6.30;99.90
2723;DHT22;1369;53.216;10.396;2023-02-20T01:36:14;6.30;99.90
2723;DHT22;1369;53.216;10.396;2023-02-20T01:38:40;6.30;99.90
2723;DHT22;1369;53.216;10.396;2023-02-20T01:41:07;6.30;99.90
2723;DHT22;1369;53.216;10.396;2023-02-20T01:43:33;6.30;99.90
2723;DHT22;1369;53.216;10.396;2023-02-20T01:49:02;6.40;99.90
2723;DHT22;1369;53.216;10.396;2023-02-20T01:51:31;6.40;99.90
2723;DHT22;1369;53.216;10.396;2023-02-20T01:53:59;6.30;99.90
2723;DHT22;1369;53.216;10.396;2023-02-20T01:56:24;6.30;99.90
2723;DHT22;1369;53.216;10.396;2023-02-20T01:58:50;6.30;99.90
2723;DHT22;1369;53.216;10.396;2023-02-20T02:01:16;6.30;99.90
2723;DHT22;1369;53.216;10.396;2023-02-20T02:03:44;6.40;99.90
2723;DHT22;1369;53.216;10.396;2023-02-20T02:06:13;6.30;99.90
2723;DHT22;1369;53.216;10.396;2023-02-20T02:08:41;6.40;99.90
2723;DHT22;1369;53.216;10.396;2023-02-20T02:11:15;6.40;99.90
2723;DHT22;1369;53.216;10.396;2023-02-20T02:13:42;6.30;99.90
2723;DHT22;1369;53.216;10.396;2023-02-20T02:18:59;6.40;99.90
2723;DHT22;1369;53.216;10.396;2023-02-20T02:30:17;6.40;99.90
2723;DHT22;1369;53.216;10.396;2023-02-20T02:36:05;6.40;99.90
2723;DHT22;1369;53.216;10.396;2023-02-20T02:38:56;6.40;99.90
2723;DHT22;1369;53.216;10.396;2023-02-20T02:41:53;6.50;99.90
2723;DHT22;1369;53.216;10.396;2023-02-20T02:44:31;6.50;99.90
2723;DHT22;1369;53.216;10.396;2023-02-20T02:47:10;6.50;99.90
2723;DHT22;1369;53.216;10.396;2023-02-20T02:52:11;6.50;99.90
2723;DHT22;1369;53.216;10.396;2023-02-20T02:54:36;6.50;99.90
2723;DHT22;1369;53.216;10.396;2023-02-20T02:57:23;6.50;99.90
2723;DHT22;1369;53.216;10.396;2023-02-20T02:59:54;6.60;99.90
2723;DHT22;1369;53.216;10.396;2023-02-20T03:02:24;6.60;99.90
2723;DHT22;1369;53.216;10.396;2023-02-20T03:04:55;6.60;99.90
2723;DHT22;1369;53.216;10.396;2023-02-20T03:07:22;6.60;99.90
2723;DHT22;1369;53.216;10.396;2023-02-20T03:09:55;6.60;99.90
2723;DHT22;1369;53.216;10.396;2023-02-20T03:12:23;6.70;99.90
2723;DHT22;1369;53.216;10.396;2023-02-20T03:15:03;6.70;99.90
2723;DHT22;1369;53.216;10.396;2023-02-20T03:18:01;6.70;99.90
2723;DHT22;1369;53.216;10.396;2023-02-20T03:20:44;6.70;99.90
2723;DHT22;1369;53.216;10.396;2023-02-20T03:23:14;6.70;99.90
2723;DHT22;1369;53.216;10.396;2023-02-20T03:25:49;6.70;99.90
2723;DHT22;1369;53.216;10.396;2023-02-20T03:28:28;6.80;99.90
2723;DHT22;1369;53.216;10.396;2023-02-20T03:30:58;6.80;99.90
2723;DHT22;1369;53.216;10.396;2023-02-20T03:33:37;6.80;99.90
2723;DHT22;1369;53.216;10.396;2023-02-20T03:36:34;6.70;99.90
2723;DHT22;1369;53.216;10.396;2023-02-20T03:39:28;6.80;99.90
2723;DHT22;1369;53.216;10.396;2023-02-20T03:42:15;6.80;99.90
2723;DHT22;1369;53.216;10.396;2023-02-20T03:45:00;6.80;99.90
2723;DHT22;1369;53.216;10.396;2023-02-20T03:47:27;6.80;99.90
2723;DHT22;1369;53.216;10.396;2023-02-20T03:49:54;6.80;99.90
2723;DHT22;1369;53.216;10.396;2023-02-20T03:52:21;6.80;99.90
2723;DHT22;1369;53.216;10.396;2023-02-20T03:54:47;6.80;99.90
2723;DHT22;1369;53.216;10.396;2023-02-20T03:57:17;6.80;99.90
2723;DHT22;1369;53.216;10.396;2023-02-20T03:59:53;6.80;99.90
2723;DHT22;1369;53.216;10.396;2023-02-20T04:02:24;6.80;99.90
2723;DHT22;1369;53.216;10.396;2023-02-20T04:04:52;6.90;99.90
2723;DHT22;1369;53.216;10.396;2023-02-20T04:07:50;6.90;99.90
2723;DHT22;1369;53.216;10.396;2023-02-20T04:10:22;6.90;99.90
2723;DHT22;1369;53.216;10.396;2023-02-20T04:12:50;6.90;99.90
2723;DHT22;1369;53.216;10.396;2023-02-20T04:15:16;6.90;99.90
2723;DHT22;1369;53.216;10.396;2023-02-20T04:17:50;6.90;99.90
2723;DHT22;1369;53.216;10.396;2023-02-20T04:20:18;6.90;99.90
2723;DHT22;1369;53.216;10.396;2023-02-20T04:22:46;6.90;99.90
2723;DHT22;1369;53.216;10.396;2023-02-20T04:25:32;6.90;99.90
2723;DHT22;1369;53.216;10.396;2023-02-20T04:28:02;6.90;99.90
2723;DHT22;1369;53.216;10.396;2023-02-20T04:30:28;7.00;99.90
2723;DHT22;1369;53.216;10.396;2023-02-20T04:32:54;6.90;99.90
2723;DHT22;1369;53.216;10.396;2023-02-20T04:35:20;6.90;99.90
2723;DHT22;1369;53.216;10.396;2023-02-20T04:37:46;6.80;99.90
2723;DHT22;1369;53.216;10.396;2023-02-20T04:40:13;6.80;99.90
2723;DHT22;1369;53.216;10.396;2023-02-20T04:42:39;6.80;99.90
2723;DHT22;1369;53.216;10.396;2023-02-20T04:45:05;6.70;99.90
2723;DHT22;1369;53.216;10.396;2023-02-20T04:47:30;6.70;99.90
2723;DHT22;1369;53.216;10.396;2023-02-20T04:49:56;6.70;99.90
2723;DHT22;1369;53.216;10.396;2023-02-20T04:52:21;6.60;99.90
2723;DHT22;1369;53.216;10.396;2023-02-20T04:54:49;6.60;99.90
2723;DHT22;1369;53.216;10.396;2023-02-20T04:57:15;6.60;99.90
2723;DHT22;1369;53.216;10.396;2023-02-20T04:59:40;6.60;99.90
2723;DHT22;1369;53.216;10.396;2023-02-20T05:02:06;6.60;99.90
2723;DHT22;1369;53.216;10.396;2023-02-20T05:04:32;6.60;99.90
2723;DHT22;1369;53.216;10.396;2023-02-20T05:06:58;6.50;99.90
2723;DHT22;1369;53.216;10.396;2023-02-20T05:09:24;6.50;99.90
2723;DHT22;1369;53.216;10.396;2023-02-20T05:11:50;6.50;99.90
2723;DHT22;1369;53.216;10.396;2023-02-20T05:14:15;6.50;99.90
2723;DHT22;1369;53.216;10.396;2023-02-20T05:16:41;6.50;99.90
2723;DHT22;1369;53.216;10.396;2023-02-20T05:19:07;6.50;99.90
2723;DHT22;1369;53.216;10.396;2023-02-20T05:21:33;6.50;99.90
2723;DHT22;1369;53.216;10.396;2023-02-20T05:24:18;6.50;99.90
2723;DHT22;1369;53.216;10.396;2023-02-20T05:26:44;6.50;99.90
2723;DHT22;1369;53.216;10.396;2023-02-20T05:29:09;6.50;99.90
2723;DHT22;1369;53.216;10.396;2023-02-20T05:31:37;6.50;99.90
2723;DHT22;1369;53.216;10.396;2023-02-20T05:34:03;6.50;99.90
2723;DHT22;1369;53.216;10.396;2023-02-20T05:36:28;6.50;99.90
2723;DHT22;1369;53.216;10.396;2023-02-20T05:38:54;6.60;99.90
2723;DHT22;1369;53.216;10.396;2023-02-20T05:41:19;6.60;99.90
2723;DHT22;1369;53.216;10.396;2023-02-20T05:43:45;6.60;99.90
2723;DHT22;1369;53.216;10.396;2023-02-20T05:46:12;6.60;99.90
2723;DHT22;1369;53.216;10.396;2023-02-20T05:48:38;6.60;99.90
2723;DHT22;1369;53.216;10.396;2023-02-20T05:51:03;6.60;99.90
2723;DHT22;1369;53.216;10.396;2023-02-20T05:53:29;6.70;99.90
2723;DHT22;1369;53.216;10.396;2023-02-20T05:55:55;6.70;99.90
2723;DHT22;1369;53.216;10.396;2023-02-20T05:58:22;6.70;99.90
2723;DHT22;1369;53.216;10.396;2023-02-20T06:00:47;6.70;99.90
2723;DHT22;1369;53.216;10.396;2023-02-20T06:03:13;6.70;99.90
2723;DHT22;1369;53.216;10.396;2023-02-20T06:05:39;6.80;99.90
2723;DHT22;1369;53.216;10.396;2023-02-20T06:08:04;6.80;99.90
2723;DHT22;1369;53.216;10.396;2023-02-20T06:10:30;6.80;99.90
2723;DHT22;1369;53.216;10.396;2023-02-20T06:12:56;6.90;99.90
2723;DHT22;1369;53.216;10.396;2023-02-20T06:15:21;6.90;99.90
2723;DHT22;1369;53.216;10.396;2023-02-20T06:17:47;6.80;99.90
2723;DHT22;1369;53.216;10.396;2023-02-20T06:20:12;6.90;99.90
2723;DHT22;1369;53.216;10.396;2023-02-20T06:22:38;6.90;99.90
2723;DHT22;1369;53.216;10.396;2023-02-20T06:25:04;6.90;99.90
2723;DHT22;1369;53.216;10.396;2023-02-20T06:27:30;6.90;99.90
2723;DHT22;1369;53.216;10.396;2023-02-20T06:29:56;6.90;99.90
2723;DHT22;1369;53.216;10.396;2023-02-20T06:32:21;6.90;99.90
2723;DHT22;1369;53.216;10.396;2023-02-20T06:34:47;6.90;99.90
2723;DHT22;1369;53.216;10.396;2023-02-20T06:37:12;7.00;99.90
2723;DHT22;1369;53.216;10.396;2023-02-20T06:39:38;7.00;99.90
2723;DHT22;1369;53.216;10.396;2023-02-20T06:42:04;7.00;99.90
2723;DHT22;1369;53.216;10.396;2023-02-20T06:44:30;7.00;99.90
2723;DHT22;1369;53.216;10.396;2023-02-20T06:46:57;7.00;99.90
2723;DHT22;1369;53.216;10.396;2023-02-20T06:49:23;7.10;99.90
2723;DHT22;1369;53.216;10.396;2023-02-20T06:51:52;7.10;99.90
2723;DHT22;1369;53.216;10.396;2023-02-20T06:54:18;7.00;99.90
2723;DHT22;1369;53.216;10.396;2023-02-20T06:56:46;7.10;99.90
2723;DHT22;1369;53.216;10.396;2023-02-20T06:59:12;7.10;99.90
2723;DHT22;1369;53.216;10.396;2023-02-20T07:01:40;7.10;99.90
2723;DHT22;1369;53.216;10.396;2023-02-20T07:04:14;7.10;99.90
2723;DHT22;1369;53.216;10.396;2023-02-20T07:06:40;7.10;99.90
2723;DHT22;1369;53.216;10.396;2023-02-20T07:09:06;7.20;99.90
2723;DHT22;1369;53.216;10.396;2023-02-20T07:11:32;7.20;99.90
2723;DHT22;1369;53.216;10.396;2023-02-20T07:13:58;7.20;99.90
2723;DHT22;1369;53.216;10.396;2023-02-20T07:16:23;7.20;99.90
2723;DHT22;1369;53.216;10.396;2023-02-20T07:18:49;7.30;99.90
2723;DHT22;1369;53.216;10.396;2023-02-20T07:21:14;7.30;99.90
2723;DHT22;1369;53.216;10.396;2023-02-20T07:23:40;7.40;99.90
2723;DHT22;1369;53.216;10.396;2023-02-20T07:26:06;7.40;99.90
2723;DHT22;1369;53.216;10.396;2023-02-20T07:28:33;7.40;99.90
2723;DHT22;1369;53.216;10.396;2023-02-20T07:31:00;7.40;99.90
2723;DHT22;1369;53.216;10.396;2023-02-20T07:33:26;7.50;99.90
2723;DHT22;1369;53.216;10.396;2023-02-20T07:35:52;7.50;99.90
2723;DHT22;1369;53.216;10.396;2023-02-20T07:38:17;7.50;99.90
2723;DHT22;1369;53.216;10.396;2023-02-20T07:40:43;7.60;99.90
2723;DHT22;1369;53.216;10.396;2023-02-20T07:43:09;7.60;99.90
2723;DHT22;1369;53.216;10.396;2023-02-20T07:45:34;7.70;99.90
2723;DHT22;1369;53.216;10.396;2023-02-20T07:48:00;7.70;99.90
2723;DHT22;1369;53.216;10.396;2023-02-20T07:50:25;7.70;99.90
2723;DHT22;1369;53.216;10.396;2023-02-20T07:52:51;7.80;99.90
2723;DHT22;1369;53.216;10.396;2023-02-20T07:55:17;7.80;99.90
2723;DHT22;1369;53.216;10.396;2023-02-20T07:57:45;7.80;99.90
2723;DHT22;1369;53.216;10.396;2023-02-20T08:00:16;7.80;99.90
2723;DHT22;1369;53.216;10.396;2023-02-20T08:02:43;7.80;99.90
2723;DHT22;1369;53.216;10.396;2023-02-20T08:05:09;7.80;99.90
2723;DHT22;1369;53.216;10.396;2023-02-20T08:07:35;7.80;99.90
2723;DHT22;1369;53.216;10.396;2023-02-20T08:10:01;7.80;99.90
2723;DHT22;1369;53.216;10.396;2023-02-20T08:12:26;7.80;99.90
2723;DHT22;1369;53.216;10.396;2023-02-20T08:14:52;7.90;99.90
2723;DHT22;1369;53.216;10.396;2023-02-20T08:17:18;7.80;99.90
2723;DHT22;1369;53.216;10.396;2023-02-20T08:19:43;7.80;99.90
2723;DHT22;1369;53.216;10.396;2023-02-20T08:22:09;7.90;99.90
2723;DHT22;1369;53.216;10.396;2023-02-20T08:24:35;7.90;99.90
2723;DHT22;1369;53.216;10.396;2023-02-20T08:27:00;7.90;99.90
2723;DHT22;1369;53.216;10.396;2023-02-20T08:29:26;7.90;99.90
2723;DHT22;1369;53.216;10.396;2023-02-20T08:31:51;7.90;99.90
2723;DHT22;1369;53.216;10.396;2023-02-20T08:34:17;7.80;99.90
2723;DHT22;1369;53.216;10.396;2023-02-20T08:36:42;7.90;99.90
2723;DHT22;1369;53.216;10.396;2023-02-20T08:39:08;7.90;99.90
2723;DHT22;1369;53.216;10.396;2023-02-20T08:41:33;7.90;99.90
2723;DHT22;1369;53.216;10.396;2023-02-20T08:43:59;7.80;99.90
2723;DHT22;1369;53.216;10.396;2023-02-20T08:46:24;7.80;99.90
2723;DHT22;1369;53.216;10.396;2023-02-20T08:48:50;7.80;99.90
2723;DHT22;1369;53.216;10.396;2023-02-20T08:51:20;7.80;99.90
2723;DHT22;1369;53.216;10.396;2023-02-20T08:53:45;7.80;99.90
2723;DHT22;1369;53.216;10.396;2023-02-20T08:56:11;7.80;99.90
2723;DHT22;1369;53.216;10.396;2023-02-20T08:58:37;7.80;99.90
2723;DHT22;1369;53.216;10.396;2023-02-20T09:01:03;7.80;99.90
2723;DHT22;1369;53.216;10.396;2023-02-20T09:03:29;7.80;99.90
2723;DHT22;1369;53.216;10.396;2023-02-20T09:05:55;7.80;99.90
2723;DHT22;1369;53.216;10.396;2023-02-20T09:08:20;7.80;99.90
2723;DHT22;1369;53.216;10.396;2023-02-20T09:10:46;7.80;99.90
2723;DHT22;1369;53.216;10.396;2023-02-20T09:13:12;7.80;99.90
2723;DHT22;1369;53.216;10.396;2023-02-20T09:15:37;7.80;99.90
2723;DHT22;1369;53.216;10.396;2023-02-20T09:18:06;7.80;99.90
2723;DHT22;1369;53.216;10.396;2023-02-20T09:20:33;7.80;99.90
2723;DHT22;1369;53.216;10.396;2023-02-20T09:22:59;7.80;99.90
2723;DHT22;1369;53.216;10.396;2023-02-20T09:25:25;7.80;99.90
2723;DHT22;1369;53.216;10.396;2023-02-20T09:27:50;7.80;99.90
2723;DHT22;1369;53.216;10.396;2023-02-20T09:30:17;7.80;99.90
2723;DHT22;1369;53.216;10.396;2023-02-20T09:32:44;7.80;99.90
2723;DHT22;1369;53.216;10.396;2023-02-20T09:35:26;7.80;99.90
2723;DHT22;1369;53.216;10.396;2023-02-20T09:37:52;7.80;99.90
2723;DHT22;1369;53.216;10.396;2023-02-20T09:40:21;7.80;99.90
2723;DHT22;1369;53.216;10.396;2023-02-20T09:45:20;7.80;99.90
2723;DHT22;1369;53.216;10.396;2023-02-20T09:50:38;7.90;99.90
2723;DHT22;1369;53.216;10.396;2023-02-20T09:53:15;7.90;99.90
2723;DHT22;1369;53.216;10.396;2023-02-20T09:55:42;7.90;99.90
2723;DHT22;1369;53.216;10.396;2023-02-20T10:00:57;7.90;99.90
2723;DHT22;1369;53.216;10.396;2023-02-20T10:03:31;7.90;99.90
2723;DHT22;1369;53.216;10.396;2023-02-20T10:06:00;7.90;99.90
2723;DHT22;1369;53.216;10.396;2023-02-20T10:08:26;7.90;99.90
2723;DHT22;1369;53.216;10.396;2023-02-20T10:10:53;7.90;99.90
2723;DHT22;1369;53.216;10.396;2023-02-20T10:16:27;7.90;99.90
2723;DHT22;1369;53.216;10.396;2023-02-20T10:21:46;7.90;99.90
2723;DHT22;1369;53.216;10.396;2023-02-20T10:24:39;8.00;99.90
2723;DHT22;1369;53.216;10.396;2023-02-20T10:29:50;8.00;99.90
2723;DHT22;1369;53.216;10.396;2023-02-20T10:32:23;8.00;99.90
2723;DHT22;1369;53.216;10.396;2023-02-20T10:34:54;8.00;99.90
2723;DHT22;1369;53.216;10.396;2023-02-20T10:37:24;8.00;99.90
2723;DHT22;1369;53.216;10.396;2023-02-20T10:39:59;8.10;99.90
2723;DHT22;1369;53.216;10.396;2023-02-20T10:42:29;8.10;99.90
2723;DHT22;1369;53.216;10.396;2023-02-20T10:45:09;8.10;99.90
2723;DHT22;1369;53.216;10.396;2023-02-20T10:47:52;8.20;99.90
2723;DHT22;1369;53.216;10.396;2023-02-20T10:50:22;8.20;99.90
2723;DHT22;1369;53.216;10.396;2023-02-20T10:53:00;8.20;99.90
2723;DHT22;1369;53.216;10.396;2023-02-20T10:55:38;8.20;99.90
2723;DHT22;1369;53.216;10.396;2023-02-20T10:58:18;8.20;99.90
2723;DHT22;1369;53.216;10.396;2023-02-20T11:00:55;8.20;99.90
2723;DHT22;1369;53.216;10.396;2023-02-20T11:04:10;8.20;99.90
2723;DHT22;1369;53.216;10.396;2023-02-20T11:06:13;8.20;99.90
2723;DHT22;1369;53.216;10.396;2023-02-20T11:08:40;8.30;99.90
2723;DHT22;1369;53.216;10.396;2023-02-20T11:11:31;8.30;99.90
2723;DHT22;1369;53.216;10.396;2023-02-20T11:13:59;8.30;99.90
2723;DHT22;1369;53.216;10.396;2023-02-20T11:16:31;8.40;99.90
2723;DHT22;1369;53.216;10.396;2023-02-20T11:19:42;8.40;99.90
2723;DHT22;1369;53.216;10.396;2023-02-20T11:22:08;8.40;99.90
2723;DHT22;1369;53.216;10.396;2023-02-20T11:24:38;8.40;99.90
2723;DHT22;1369;53.216;10.396;2023-02-20T11:27:07;8.50;99.90
2723;DHT22;1369;53.216;10.396;2023-02-20T11:29:40;8.50;99.90
2723;DHT22;1369;53.216;10.396;2023-02-20T11:32:30;8.50;99.90
2723;DHT22;1369;53.216;10.396;2023-02-20T11:37:41;8.50;99.90
2723;DHT22;1369;53.216;10.396;2023-02-20T11:40:29;8.60;99.90
2723;DHT22;1369;53.216;10.396;2023-02-20T11:42:55;8.60;99.90
2723;DHT22;1369;53.216;10.396;2023-02-20T11:45:26;8.70;99.90
2723;DHT22;1369;53.216;10.396;2023-02-20T11:48:09;8.70;99.90
2723;DHT22;1369;53.216;10.396;2023-02-20T11:50:41;8.70;99.90
2723;DHT22;1369;53.216;10.396;2023-02-20T11:55:43;8.70;99.90
2723;DHT22;1369;53.216;10.396;2023-02-20T11:58:24;8.70;99.90
2723;DHT22;1369;53.216;10.396;2023-02-20T12:00:51;8.80;99.90
2723;DHT22;1369;53.216;10.396;2023-02-20T12:03:22;8.80;99.90
2723;DHT22;1369;53.216;10.396;2023-02-20T12:05:48;8.80;99.90
2723;DHT22;1369;53.216;10.396;2023-02-20T12:11:20;8.90;99.90
2723;DHT22;1369;53.216;10.396;2023-02-20T12:13:50;8.90;99.90
2723;DHT22;1369;53.216;10.396;2023-02-20T12:21:42;9.00;99.90
2723;DHT22;1369;53.216;10.396;2023-02-20T12:24:33;9.00;99.90
2723;DHT22;1369;53.216;10.396;2023-02-20T12:27:02;9.00;99.90
2723;DHT22;1369;53.216;10.396;2023-02-20T12:32:31;9.10;99.90
2723;DHT22;1369;53.216;10.396;2023-02-20T12:35:33;9.10;99.90
2723;DHT22;1369;53.216;10.396;2023-02-20T12:41:09;9.20;99.90
2723;DHT22;1369;53.216;10.396;2023-02-20T12:43:44;9.20;99.90
2723;DHT22;1369;53.216;10.396;2023-02-20T12:46:36;9.30;99.90
2723;DHT22;1369;53.216;10.396;2023-02-20T12:54:49;9.40;99.90
2723;DHT22;1369;53.216;10.396;2023-02-20T12:57:37;9.40;99.90
2723;DHT22;1369;53.216;10.396;2023-02-20T13:00:57;9.40;99.90
2723;DHT22;1369;53.216;10.396;2023-02-20T13:03:19;9.50;99.90
2723;DHT22;1369;53.216;10.396;2023-02-20T13:05:48;9.50;99.90
2723;DHT22;1369;53.216;10.396;2023-02-20T13:08:20;9.50;99.90
2723;DHT22;1369;53.216;10.396;2023-02-20T13:10:55;9.60;99.90
2723;DHT22;1369;53.216;10.396;2023-02-20T13:13:22;9.60;99.90
2723;DHT22;1369;53.216;10.396;2023-02-20T13:16:03;9.60;99.90
2723;DHT22;1369;53.216;10.396;2023-02-20T13:19:14;9.60;99.90
2723;DHT22;1369;53.216;10.396;2023-02-20T13:21:41;9.70;99.90
2723;DHT22;1369;53.216;10.396;2023-02-20T13:26:49;9.70;99.90
2723;DHT22;1369;53.216;10.396;2023-02-20T13:36:46;9.70;99.90
2723;DHT22;1369;53.216;10.396;2023-02-20T13:52:35;9.90;99.90
2723;DHT22;1369;53.216;10.396;2023-02-20T13:57:49;9.90;99.90
2723;DHT22;1369;53.216;10.396;2023-02-20T14:02:46;9.90;99.90
2723;DHT22;1369;53.216;10.396;2023-02-20T14:05:21;9.90;99.90
2723;DHT22;1369;53.216;10.396;2023-02-20T14:07:48;9.90;99.90
2723;DHT22;1369;53.216;10.396;2023-02-20T14:15:56;9.80;99.90
2723;DHT22;1369;53.216;10.396;2023-02-20T14:18:26;9.80;99.90
2723;DHT22;1369;53.216;10.396;2023-02-20T14:21:16;9.80;99.90
2723;DHT22;1369;53.216;10.396;2023-02-20T14:23:43;9.80;99.90
2723;DHT22;1369;53.216;10.396;2023-02-20T14:26:38;9.80;99.90
2723;DHT22;1369;53.216;10.396;2023-02-20T14:29:19;9.80;99.90
2723;DHT22;1369;53.216;10.396;2023-02-20T14:31:44;9.80;99.90
2723;DHT22;1369;53.216;10.396;2023-02-20T14:37:14;9.70;99.90
2723;DHT22;1369;53.216;10.396;2023-02-20T14:39:53;9.80;99.90
2723;DHT22;1369;53.216;10.396;2023-02-20T14:42:22;9.70;99.90
2723;DHT22;1369;53.216;10.396;2023-02-20T14:44:49;9.70;99.90
2723;DHT22;1369;53.216;10.396;2023-02-20T14:47:17;9.70;99.90
2723;DHT22;1369;53.216;10.396;2023-02-20T14:49:44;9.80;99.90
2723;DHT22;1369;53.216;10.396;2023-02-20T14:54:38;9.80;99.90
2723;DHT22;1369;53.216;10.396;2023-02-20T14:57:05;9.70;99.90
2723;DHT22;1369;53.216;10.396;2023-02-20T15:07:17;9.70;99.90
2723;DHT22;1369;53.216;10.396;2023-02-20T15:09:45;9.70;99.90
2723;DHT22;1369;53.216;10.396;2023-02-20T15:15:09;9.70;99.90
2723;DHT22;1369;53.216;10.396;2023-02-20T15:17:37;9.70;99.90
2723;DHT22;1369;53.216;10.396;2023-02-20T15:20:16;9.70;99.90
2723;DHT22;1369;53.216;10.396;2023-02-20T15:22:42;9.70;99.90
2723;DHT22;1369;53.216;10.396;2023-02-20T15:25:27;9.70;99.90
2723;DHT22;1369;53.216;10.396;2023-02-20T15:28:25;9.70;99.90
2723;DHT22;1369;53.216;10.396;2023-02-20T15:31:29;9.70;99.90
2723;DHT22;1369;53.216;10.396;2023-02-20T15:33:55;9.70;99.90
2723;DHT22;1369;53.216;10.396;2023-02-20T15:36:23;9.70;99.90
2723;DHT22;1369;53.216;10.396;2023-02-20T15:38:53;9.70;99.90
2723;DHT22;1369;53.216;10.396;2023-02-20T15:41:19;9.70;99.90
2723;DHT22;1369;53.216;10.396;2023-02-20T15:43:46;9.70;99.90
2723;DHT22;1369;53.216;10.396;2023-02-20T15:46:13;9.70;99.90
2723;DHT22;1369;53.216;10.396;2023-02-20T15:48:39;9.70;99.90
2723;DHT22;1369;53.216;10.396;2023-02-20T15:51:05;9.70;99.90
2723;DHT22;1369;53.216;10.396;2023-02-20T15:53:31;9.70;99.90
2723;DHT22;1369;53.216;10.396;2023-02-20T15:55:58;9.80;99.90
2723;DHT22;1369;53.216;10.396;2023-02-20T15:58:33;9.80;99.90
2723;DHT22;1369;53.216;10.396;2023-02-20T16:01:00;9.80;99.90
2723;DHT22;1369;53.216;10.396;2023-02-20T16:03:27;9.80;99.90
2723;DHT22;1369;53.216;10.396;2023-02-20T16:05:56;9.80;99.90
2723;DHT22;1369;53.216;10.396;2023-02-20T16:08:23;9.80;99.90
2723;DHT22;1369;53.216;10.396;2023-02-20T16:10:50;9.80;99.90
2723;DHT22;1369;53.216;10.396;2023-02-20T16:15:56;9.80;99.90
2723;DHT22;1369;53.216;10.396;2023-02-20T16:18:22;9.70;99.90
2723;DHT22;1369;53.216;10.396;2023-02-20T16:20:51;9.70;99.90
2723;DHT22;1369;53.216;10.396;2023-02-20T16:23:17;9.70;99.90
2723;DHT22;1369;53.216;10.396;2023-02-20T16:25:43;9.70;99.90
2723;DHT22;1369;53.216;10.396;2023-02-20T16:28:10;9.70;99.90
2723;DHT22;1369;53.216;10.396;2023-02-20T16:30:39;9.70;99.90
2723;DHT22;1369;53.216;10.396;2023-02-20T16:33:14;9.70;99.90
2723;DHT22;1369;53.216;10.396;2023-02-20T16:35:40;9.70;99.90
2723;DHT22;1369;53.216;10.396;2023-02-20T16:38:05;9.70;99.90
2723;DHT22;1369;53.216;10.396;2023-02-20T16:40:31;9.70;99.90
2723;DHT22;1369;53.216;10.396;2023-02-20T16:42:56;9.70;99.90
2723;DHT22;1369;53.216;10.396;2023-02-20T16:45:22;9.70;99.90
2723;DHT22;1369;53.216;10.396;2023-02-20T16:47:50;9.60;99.90
2723;DHT22;1369;53.216;10.396;2023-02-20T16:50:18;9.60;99.90
2723;DHT22;1369;53.216;10.396;2023-02-20T16:52:50;9.60;99.90
2723;DHT22;1369;53.216;10.396;2023-02-20T16:55:19;9.60;99.90
2723;DHT22;1369;53.216;10.396;2023-02-20T16:57:45;9.60;99.90
2723;DHT22;1369;53.216;10.396;2023-02-20T17:00:15;9.60;99.90
2723;DHT22;1369;53.216;10.396;2023-02-20T17:02:41;9.60;99.90
2723;DHT22;1369;53.216;10.396;2023-02-20T17:05:07;9.60;99.90
2723;DHT22;1369;53.216;10.396;2023-02-20T17:07:33;9.60;99.90
2723;DHT22;1369;53.216;10.396;2023-02-20T17:09:59;9.60;99.90
2723;DHT22;1369;53.216;10.396;2023-02-20T17:12:25;9.60;99.90
2723;DHT22;1369;53.216;10.396;2023-02-20T17:14:51;9.60;99.90
2723;DHT22;1369;53.216;10.396;2023-02-20T17:17:18;9.60;99.90
2723;DHT22;1369;53.216;10.396;2023-02-20T17:19:44;9.60;99.90
2723;DHT22;1369;53.216;10.396;2023-02-20T17:22:11;9.60;99.90
2723;DHT22;1369;53.216;10.396;2023-02-20T17:24:41;9.60;99.90
2723;DHT22;1369;53.216;10.396;2023-02-20T17:27:07;9.60;99.90
2723;DHT22;1369;53.216;10.396;2023-02-20T17:29:33;9.60;99.90
2723;DHT22;1369;53.216;10.396;2023-02-20T17:31:58;9.60;99.90
2723;DHT22;1369;53.216;10.396;2023-02-20T17:34:23;9.60;99.90
2723;DHT22;1369;53.216;10.396;2023-02-20T17:36:49;9.60;99.90
2723;DHT22;1369;53.216;10.396;2023-02-20T17:39:16;9.60;99.90
2723;DHT22;1369;53.216;10.396;2023-02-20T17:41:42;9.60;99.90
2723;DHT22;1369;53.216;10.396;2023-02-20T17:44:08;9.60;99.90
2723;DHT22;1369;53.216;10.396;2023-02-20T17:46:33;9.60;99.90
2723;DHT22;1369;53.216;10.396;2023-02-20T17:48:59;9.60;99.90
2723;DHT22;1369;53.216;10.396;2023-02-20T17:51:24;9.60;99.90
2723;DHT22;1369;53.216;10.396;2023-02-20T17:53:50;9.60;99.90
2723;DHT22;1369;53.216;10.396;2023-02-20T17:56:16;9.60;99.90
2723;DHT22;1369;53.216;10.396;2023-02-20T17:58:42;9.60;99.90
2723;DHT22;1369;53.216;10.396;2023-02-20T18:01:08;9.60;99.90
2723;DHT22;1369;53.216;10.396;2023-02-20T18:03:35;9.60;99.90
2723;DHT22;1369;53.216;10.396;2023-02-20T18:06:01;9.60;99.90
2723;DHT22;1369;53.216;10.396;2023-02-20T18:08:26;9.60;99.90
2723;DHT22;1369;53.216;10.396;2023-02-20T18:10:51;9.60;99.90
2723;DHT22;1369;53.216;10.396;2023-02-20T18:13:17;9.60;99.90